createdAt,value
2022-08-12T00:00:05.787Z,1018.86
2022-08-12T00:01:05.740Z,1018.83
2022-08-12T00:02:06.004Z,1018.86
2022-08-12T00:03:05.835Z,1018.80
2022-08-12T00:04:05.696Z,1018.79
2022-08-12T00:05:05.713Z,1018.76
2022-08-12T00:06:05.671Z,1018.86
2022-08-12T00:07:05.662Z,1018.83
2022-08-12T00:08:05.655Z,1018.82
2022-08-12T00:09:05.685Z,1018.79
2022-08-12T00:10:05.630Z,1018.86
2022-08-12T00:11:08.636Z,1018.84
2022-08-12T00:12:06.607Z,1018.84
2022-08-12T00:13:05.615Z,1018.85
2022-08-12T00:14:05.619Z,1018.87
2022-08-12T00:15:05.574Z,1018.83
2022-08-12T00:16:05.565Z,1018.81
2022-08-12T00:17:05.573Z,1018.78
2022-08-12T00:18:05.553Z,1018.79
2022-08-12T00:19:05.538Z,1018.86
2022-08-12T00:20:05.565Z,1018.85
2022-08-12T00:21:05.513Z,1018.87
2022-08-12T00:22:05.499Z,1018.89
2022-08-12T00:23:05.489Z,1018.90
2022-08-12T00:24:05.475Z,1018.88
2022-08-12T00:25:05.527Z,1018.88
2022-08-12T00:26:23.240Z,1018.87
2022-08-12T00:27:06.464Z,1018.94
2022-08-12T00:28:05.437Z,1018.88
2022-08-12T00:29:05.456Z,1018.86
2022-08-12T00:30:05.410Z,1018.84
2022-08-12T00:31:05.418Z,1018.81
2022-08-12T00:32:05.387Z,1018.91
2022-08-12T00:33:05.380Z,1018.85
2022-08-12T00:34:05.574Z,1018.87
2022-08-12T00:35:08.715Z,1018.84
2022-08-12T00:36:05.347Z,1018.82
2022-08-12T00:37:12.862Z,1018.84
2022-08-12T00:38:06.324Z,1018.81
2022-08-12T00:39:05.344Z,1018.81
2022-08-12T00:40:11.258Z,1018.88
2022-08-12T00:41:06.294Z,1018.83
2022-08-12T00:42:05.284Z,1018.85
2022-08-12T00:43:05.275Z,1018.84
2022-08-12T00:44:05.257Z,1018.88
2022-08-12T00:45:05.277Z,1018.86
2022-08-12T00:46:05.241Z,1018.88
2022-08-12T00:47:05.233Z,1018.87
2022-08-12T00:48:05.222Z,1018.87
2022-08-12T00:49:05.212Z,1018.85
2022-08-12T00:50:10.459Z,1018.81
2022-08-12T00:51:05.192Z,1018.81
2022-08-12T00:52:05.178Z,1018.83
2022-08-12T00:53:05.166Z,1018.84
2022-08-12T00:54:05.151Z,1018.83
2022-08-12T00:55:05.179Z,1018.89
2022-08-12T00:56:05.137Z,1018.86
2022-08-12T00:57:05.130Z,1018.83
2022-08-12T00:58:05.123Z,1018.84
2022-08-12T00:59:05.102Z,1018.85
2022-08-12T01:00:05.132Z,1018.82
2022-08-12T01:01:05.158Z,1018.83
2022-08-12T01:02:12.152Z,1018.81
2022-08-12T01:03:06.062Z,1018.82
2022-08-12T01:04:05.053Z,1018.79
2022-08-12T01:05:05.081Z,1018.80
2022-08-12T01:06:05.025Z,1018.75
2022-08-12T01:07:05.018Z,1018.78
2022-08-12T01:08:05.016Z,1018.80
2022-08-12T01:09:04.996Z,1018.79
2022-08-12T01:10:05.027Z,1018.79
2022-08-12T01:11:04.977Z,1018.77
2022-08-12T01:12:04.975Z,1018.83
2022-08-12T01:13:18.709Z,1018.78
2022-08-12T01:14:05.953Z,1018.80
2022-08-12T01:15:04.934Z,1018.78
2022-08-12T01:16:04.952Z,1018.83
2022-08-12T01:17:04.913Z,1018.84
2022-08-12T01:18:04.897Z,1018.85
2022-08-12T01:19:04.885Z,1018.85
2022-08-12T01:20:04.883Z,1018.80
2022-08-12T01:21:04.897Z,1018.74
2022-08-12T01:22:04.855Z,1018.74
2022-08-12T01:23:04.843Z,1018.78
2022-08-12T01:24:27.977Z,1018.86
2022-08-12T01:25:05.823Z,1018.77
2022-08-12T01:26:04.893Z,1018.74
2022-08-12T01:27:07.523Z,1018.81
2022-08-12T01:28:04.800Z,1018.75
2022-08-12T01:29:04.786Z,1018.77
2022-08-12T01:30:04.775Z,1018.80
2022-08-12T01:31:04.763Z,1018.76
2022-08-12T01:32:04.790Z,1018.73
2022-08-12T01:33:04.739Z,1018.79
2022-08-12T01:34:04.730Z,1018.82
2022-08-12T01:35:04.725Z,1018.80
2022-08-12T01:36:08.000Z,1018.78
2022-08-12T01:37:04.703Z,1018.82
2022-08-12T01:38:04.684Z,1018.85
2022-08-12T01:39:04.680Z,1018.82
2022-08-12T01:40:35.376Z,1018.76
2022-08-12T01:41:05.708Z,1018.75
2022-08-12T01:42:04.643Z,1018.82
2022-08-12T01:43:04.640Z,1018.75
2022-08-12T01:44:04.631Z,1018.77
2022-08-12T01:45:04.615Z,1018.82
2022-08-12T01:46:04.629Z,1018.76
2022-08-12T01:47:04.593Z,1018.75
2022-08-12T01:48:05.085Z,1018.69
2022-08-12T01:49:04.578Z,1018.72
2022-08-12T01:50:04.555Z,1018.64
2022-08-12T01:51:06.419Z,1018.74
2022-08-12T01:52:21.120Z,1018.77
2022-08-12T01:53:05.526Z,1018.79
2022-08-12T01:54:04.585Z,1018.76
2022-08-12T01:55:04.506Z,1018.81
2022-08-12T01:56:04.572Z,1018.84
2022-08-12T01:57:04.482Z,1018.80
2022-08-12T01:58:04.475Z,1018.83
2022-08-12T01:59:04.463Z,1018.81
2022-08-12T02:00:04.494Z,1018.82
2022-08-12T02:01:04.476Z,1018.85
2022-08-12T02:02:04.422Z,1018.84
2022-08-12T02:03:04.416Z,1018.81
2022-08-12T02:04:04.405Z,1018.82
2022-08-12T02:05:04.432Z,1018.78
2022-08-12T02:06:04.378Z,1018.79
2022-08-12T02:07:04.372Z,1018.84
2022-08-12T02:08:04.363Z,1018.77
2022-08-12T02:09:04.362Z,1018.77
2022-08-12T02:10:04.385Z,1018.79
2022-08-12T02:11:04.340Z,1018.79
2022-08-12T02:12:06.375Z,1018.82
2022-08-12T02:13:04.312Z,1018.76
2022-08-12T02:14:04.299Z,1018.79
2022-08-12T02:15:04.290Z,1018.75
2022-08-12T02:16:04.308Z,1018.82
2022-08-12T02:17:04.274Z,1018.74
2022-08-12T02:18:04.259Z,1018.76
2022-08-12T02:19:04.242Z,1018.77
2022-08-12T02:20:05.231Z,1018.73
2022-08-12T02:21:04.227Z,1018.68
2022-08-12T02:22:04.826Z,1018.73
2022-08-12T02:23:04.205Z,1018.78
2022-08-12T02:24:04.195Z,1018.81
2022-08-12T02:25:04.184Z,1018.73
2022-08-12T02:26:04.198Z,1018.78
2022-08-12T02:27:04.158Z,1018.68
2022-08-12T02:28:06.127Z,1018.69
2022-08-12T02:29:04.148Z,1018.73
2022-08-12T02:30:04.134Z,1018.72
2022-08-12T02:31:07.453Z,1018.71
2022-08-12T02:32:04.098Z,1018.66
2022-08-12T02:33:04.103Z,1018.70
2022-08-12T02:34:04.080Z,1018.67
2022-08-12T02:35:04.075Z,1018.65
2022-08-12T02:36:04.090Z,1018.69
2022-08-12T02:37:04.134Z,1018.73
2022-08-12T02:38:04.039Z,1018.68
2022-08-12T02:39:04.033Z,1018.70
2022-08-12T02:40:04.018Z,1018.74
2022-08-12T02:41:04.038Z,1018.70
2022-08-12T02:42:04.012Z,1018.70
2022-08-12T02:43:03.984Z,1018.70
2022-08-12T02:44:04.046Z,1018.70
2022-08-12T02:45:03.965Z,1018.71
2022-08-12T02:46:03.947Z,1018.70
2022-08-12T02:47:03.946Z,1018.68
2022-08-12T02:48:03.961Z,1018.71
2022-08-12T02:49:03.920Z,1018.62
2022-08-12T02:50:03.913Z,1018.67
2022-08-12T02:51:03.900Z,1018.65
2022-08-12T02:52:03.884Z,1018.63
2022-08-12T02:53:03.902Z,1018.64
2022-08-12T02:54:05.885Z,1018.67
2022-08-12T02:55:03.856Z,1018.66
2022-08-12T02:56:03.845Z,1018.59
2022-08-12T02:57:03.825Z,1018.65
2022-08-12T02:58:04.254Z,1018.66
2022-08-12T02:59:04.809Z,1018.56
2022-08-12T03:00:03.799Z,1018.56
2022-08-12T03:01:03.882Z,1018.60
2022-08-12T03:02:03.789Z,1018.57
2022-08-12T03:03:03.808Z,1018.60
2022-08-12T03:04:03.758Z,1018.65
2022-08-12T03:05:03.749Z,1018.67
2022-08-12T03:06:03.736Z,1018.72
2022-08-12T03:07:03.735Z,1018.62
2022-08-12T03:08:03.747Z,1018.61
2022-08-12T03:09:03.715Z,1018.69
2022-08-12T03:10:06.958Z,1018.69
2022-08-12T03:11:04.700Z,1018.71
2022-08-12T03:12:03.713Z,1018.67
2022-08-12T03:13:03.661Z,1018.68
2022-08-12T03:14:03.659Z,1018.72
2022-08-12T03:15:03.636Z,1018.67
2022-08-12T03:16:03.623Z,1018.66
2022-08-12T03:17:03.641Z,1018.68
2022-08-12T03:18:26.330Z,1018.69
2022-08-12T03:19:04.597Z,1018.70
2022-08-12T03:20:09.140Z,1018.71
2022-08-12T03:21:04.572Z,1018.71
2022-08-12T03:22:09.179Z,1018.74
2022-08-12T03:23:04.578Z,1018.68
2022-08-12T03:24:03.544Z,1018.67
2022-08-12T03:25:03.548Z,1018.76
2022-08-12T03:26:03.632Z,1018.78
2022-08-12T03:27:03.512Z,1018.73
2022-08-12T03:28:03.530Z,1018.76
2022-08-12T03:29:03.489Z,1018.73
2022-08-12T03:30:03.472Z,1018.71
2022-08-12T03:31:03.469Z,1018.69
2022-08-12T03:32:03.459Z,1018.77
2022-08-12T03:33:03.446Z,1018.76
2022-08-12T03:34:03.603Z,1018.77
2022-08-12T03:35:03.428Z,1018.74
2022-08-12T03:36:03.413Z,1018.79
2022-08-12T03:37:03.399Z,1018.72
2022-08-12T03:38:03.451Z,1018.73
2022-08-12T03:39:03.416Z,1018.77
2022-08-12T03:40:03.451Z,1018.75
2022-08-12T03:41:03.355Z,1018.75
2022-08-12T03:42:03.357Z,1018.74
2022-08-12T03:43:03.341Z,1018.72
2022-08-12T03:44:03.367Z,1018.73
2022-08-12T03:45:03.351Z,1018.79
2022-08-12T03:46:03.301Z,1018.76
2022-08-12T03:47:03.304Z,1018.75
2022-08-12T03:48:03.284Z,1018.77
2022-08-12T03:49:03.304Z,1018.72
2022-08-12T03:50:03.266Z,1018.75
2022-08-12T03:51:03.248Z,1018.80
2022-08-12T03:52:03.238Z,1018.79
2022-08-12T03:53:03.230Z,1018.79
2022-08-12T03:54:03.247Z,1018.78
2022-08-12T03:55:03.207Z,1018.75
2022-08-12T03:56:03.195Z,1018.79
2022-08-12T03:57:03.186Z,1018.82
2022-08-12T03:58:03.212Z,1018.83
2022-08-12T03:59:03.169Z,1018.82
2022-08-12T04:00:03.151Z,1018.83
2022-08-12T04:01:03.221Z,1018.83
2022-08-12T04:02:03.128Z,1018.85
2022-08-12T04:03:03.150Z,1018.82
2022-08-12T04:04:03.113Z,1018.80
2022-08-12T04:05:03.098Z,1018.82
2022-08-12T04:06:03.099Z,1018.85
2022-08-12T04:07:03.074Z,1018.78
2022-08-12T04:08:03.251Z,1018.80
2022-08-12T04:09:03.067Z,1018.80
2022-08-12T04:10:03.050Z,1018.85
2022-08-12T04:11:03.036Z,1018.83
2022-08-12T04:12:03.070Z,1018.81
2022-08-12T04:13:03.019Z,1018.79
2022-08-12T04:14:03.031Z,1018.89
2022-08-12T04:15:02.995Z,1018.86
2022-08-12T04:16:02.982Z,1018.85
2022-08-12T04:17:02.971Z,1018.83
2022-08-12T04:18:06.339Z,1018.83
2022-08-12T04:19:03.101Z,1018.86
2022-08-12T04:20:02.942Z,1018.87
2022-08-12T04:21:02.929Z,1018.85
2022-08-12T04:22:03.774Z,1018.84
2022-08-12T04:23:02.908Z,1018.90
2022-08-12T04:24:02.920Z,1018.92
2022-08-12T04:25:03.108Z,1018.93
2022-08-12T04:26:02.898Z,1018.94
2022-08-12T04:27:02.862Z,1018.88
2022-08-12T04:28:13.036Z,1018.94
2022-08-12T04:29:03.878Z,1018.91
2022-08-12T04:30:29.921Z,1018.91
2022-08-12T04:31:03.815Z,1018.94
2022-08-12T04:32:02.820Z,1018.93
2022-08-12T04:33:02.830Z,1018.94
2022-08-12T04:34:02.789Z,1018.95
2022-08-12T04:35:02.773Z,1018.91
2022-08-12T04:36:02.770Z,1018.87
2022-08-12T04:37:02.757Z,1018.89
2022-08-12T04:38:02.769Z,1018.95
2022-08-12T04:39:02.737Z,1018.91
2022-08-12T04:40:02.730Z,1018.96
2022-08-12T04:41:02.718Z,1018.95
2022-08-12T04:42:02.704Z,1018.90
2022-08-12T04:43:02.718Z,1018.88
2022-08-12T04:44:02.766Z,1018.89
2022-08-12T04:45:02.673Z,1018.91
2022-08-12T04:46:02.675Z,1018.85
2022-08-12T04:47:02.685Z,1018.91
2022-08-12T04:48:02.909Z,1018.88
2022-08-12T04:49:02.632Z,1018.88
2022-08-12T04:50:02.619Z,1018.90
2022-08-12T04:51:03.606Z,1018.89
2022-08-12T04:52:02.633Z,1018.86
2022-08-12T04:53:02.588Z,1018.90
2022-08-12T04:54:02.578Z,1018.85
2022-08-12T04:55:02.571Z,1018.91
2022-08-12T04:56:02.555Z,1018.92
2022-08-12T04:57:03.623Z,1018.89
2022-08-12T04:58:02.564Z,1018.89
2022-08-12T04:59:02.526Z,1018.87
2022-08-12T05:00:02.523Z,1018.89
2022-08-12T05:01:07.454Z,1018.89
2022-08-12T05:02:02.524Z,1018.93
2022-08-12T05:03:02.612Z,1019.00
2022-08-12T05:04:02.469Z,1018.88
2022-08-12T05:05:02.455Z,1018.93
2022-08-12T05:06:02.447Z,1018.98
2022-08-12T05:07:02.468Z,1018.97
2022-08-12T05:08:02.418Z,1018.94
2022-08-12T05:09:02.408Z,1018.92
2022-08-12T05:10:03.398Z,1018.95
2022-08-12T05:11:02.399Z,1018.97
2022-08-12T05:12:02.415Z,1018.89
2022-08-12T05:13:02.394Z,1018.86
2022-08-12T05:14:02.385Z,1018.86
2022-08-12T05:15:02.348Z,1018.94
2022-08-12T05:16:04.619Z,1018.88
2022-08-12T05:17:02.362Z,1018.90
2022-08-12T05:18:19.374Z,1018.85
2022-08-12T05:19:03.305Z,1018.86
2022-08-12T05:20:02.324Z,1018.88
2022-08-12T05:21:02.927Z,1018.78
2022-08-12T05:22:02.274Z,1018.85
2022-08-12T05:23:10.033Z,1018.86
2022-08-12T05:24:03.263Z,1018.87
2022-08-12T05:25:02.291Z,1018.91
2022-08-12T05:26:02.232Z,1018.86
2022-08-12T05:27:02.227Z,1018.92
2022-08-12T05:28:02.209Z,1018.93
2022-08-12T05:29:02.199Z,1018.92
2022-08-12T05:30:06.953Z,1018.89
2022-08-12T05:31:03.230Z,1018.95
2022-08-12T05:32:02.171Z,1018.91
2022-08-12T05:33:02.158Z,1018.94
2022-08-12T05:34:02.155Z,1018.91
2022-08-12T05:35:02.143Z,1018.93
2022-08-12T05:36:02.156Z,1018.90
2022-08-12T05:37:02.110Z,1018.93
2022-08-12T05:38:02.099Z,1018.89
2022-08-12T05:39:02.089Z,1018.99
2022-08-12T05:40:05.676Z,1018.91
2022-08-12T05:41:03.105Z,1018.92
2022-08-12T05:42:02.057Z,1018.94
2022-08-12T05:43:02.051Z,1018.96
2022-08-12T05:44:02.075Z,1018.99
2022-08-12T05:45:02.022Z,1019.00
2022-08-12T05:46:02.013Z,1018.98
2022-08-12T05:47:02.003Z,1019.02
2022-08-12T05:48:01.989Z,1019.02
2022-08-12T05:49:02.072Z,1019.03
2022-08-12T05:50:01.974Z,1018.98
2022-08-12T05:51:01.960Z,1019.05
2022-08-12T05:52:01.952Z,1019.02
2022-08-12T05:53:01.944Z,1019.00
2022-08-12T05:54:01.961Z,1019.05
2022-08-12T05:55:01.921Z,1019.02
2022-08-12T05:56:01.913Z,1019.08
2022-08-12T05:57:01.897Z,1019.04
2022-08-12T05:58:01.892Z,1019.04
2022-08-12T05:59:01.896Z,1019.12
2022-08-12T06:00:01.865Z,1019.06
2022-08-12T06:02:09.752Z,1019.04
2022-08-12T06:02:10.361Z,1019.08
2022-08-12T06:03:02.937Z,1019.09
2022-08-12T06:04:01.829Z,1019.08
2022-08-12T06:05:01.810Z,1019.06
2022-08-12T06:06:01.798Z,1019.09
2022-08-12T06:07:01.950Z,1019.05
2022-08-12T06:08:03.166Z,1019.02
2022-08-12T06:09:01.766Z,1019.05
2022-08-12T06:10:01.756Z,1019.06
2022-08-12T06:11:01.749Z,1019.13
2022-08-12T06:12:06.037Z,1019.13
2022-08-12T06:13:01.736Z,1019.14
2022-08-12T06:14:01.711Z,1019.14
2022-08-12T06:15:02.715Z,1019.13
2022-08-12T06:16:01.696Z,1019.17
2022-08-12T06:17:01.682Z,1019.16
2022-08-12T06:18:01.699Z,1019.13
2022-08-12T06:19:01.658Z,1019.16
2022-08-12T06:20:26.536Z,1019.20
2022-08-12T06:21:02.716Z,1019.13
2022-08-12T06:22:01.623Z,1019.12
2022-08-12T06:23:01.670Z,1019.14
2022-08-12T06:24:01.610Z,1019.16
2022-08-12T06:25:01.594Z,1019.10
2022-08-12T06:26:01.585Z,1019.13
2022-08-12T06:27:01.570Z,1019.11
2022-08-12T06:28:06.440Z,1019.11
2022-08-12T06:29:02.557Z,1019.15
2022-08-12T06:30:07.021Z,1019.11
2022-08-12T06:31:24.823Z,1019.15
2022-08-12T06:32:02.521Z,1019.10
2022-08-12T06:33:18.425Z,1019.14
2022-08-12T06:35:23.436Z,1019.14
2022-08-12T06:35:25.315Z,1019.20
2022-08-12T06:36:02.474Z,1019.17
2022-08-12T06:37:01.508Z,1019.18
2022-08-12T06:38:01.450Z,1019.17
2022-08-12T06:39:01.461Z,1019.17
2022-08-12T06:40:03.804Z,1019.13
2022-08-12T06:41:01.415Z,1019.11
2022-08-12T06:42:02.746Z,1019.21
2022-08-12T06:43:02.411Z,1019.18
2022-08-12T06:44:05.726Z,1019.20
2022-08-12T06:45:02.374Z,1019.13
2022-08-12T06:46:01.366Z,1019.09
2022-08-12T06:47:01.420Z,1019.14
2022-08-12T06:48:01.343Z,1019.17
2022-08-12T06:49:01.341Z,1019.15
2022-08-12T06:50:01.325Z,1019.06
2022-08-12T06:51:01.323Z,1019.09
2022-08-12T06:52:01.334Z,1019.11
2022-08-12T06:53:01.289Z,1019.12
2022-08-12T06:54:01.283Z,1019.09
2022-08-12T06:55:01.310Z,1019.10
2022-08-12T06:56:01.257Z,1019.09
2022-08-12T06:57:04.826Z,1019.10
2022-08-12T06:58:07.459Z,1019.11
2022-08-12T06:59:02.229Z,1019.02
2022-08-12T07:00:01.215Z,1019.06
2022-08-12T07:01:01.294Z,1019.14
2022-08-12T07:02:01.200Z,1019.04
2022-08-12T07:03:01.185Z,1019.06
2022-08-12T07:04:33.396Z,1019.08
2022-08-12T07:05:02.163Z,1019.03
2022-08-12T07:06:01.198Z,1019.06
2022-08-12T07:07:01.144Z,1019.06
2022-08-12T07:08:01.132Z,1019.10
2022-08-12T07:09:01.121Z,1019.06
2022-08-12T07:10:06.330Z,1019.13
2022-08-12T07:11:02.165Z,1019.06
2022-08-12T07:12:01.090Z,1019.10
2022-08-12T07:13:01.088Z,1019.05
2022-08-12T07:14:11.411Z,1019.08
2022-08-12T07:15:02.528Z,1019.08
2022-08-12T07:16:01.048Z,1019.06
2022-08-12T07:17:01.062Z,1019.06
2022-08-12T07:18:01.027Z,1019.07
2022-08-12T07:19:01.010Z,1019.11
2022-08-12T07:20:04.451Z,1019.10
2022-08-12T07:21:00.990Z,1019.15
2022-08-12T07:22:02.618Z,1019.12
2022-08-12T07:23:00.969Z,1019.16
2022-08-12T07:24:00.958Z,1019.09
2022-08-12T07:25:00.952Z,1019.13
2022-08-12T07:26:00.944Z,1019.09
2022-08-12T07:27:00.932Z,1019.12
2022-08-12T07:28:00.949Z,1019.06
2022-08-12T07:29:01.913Z,1019.05
2022-08-12T07:30:04.797Z,1019.07
2022-08-12T07:31:00.885Z,1019.12
2022-08-12T07:32:00.880Z,1019.15
2022-08-12T07:33:01.826Z,1019.19
2022-08-12T07:34:00.849Z,1019.21
2022-08-12T07:35:00.840Z,1019.19
2022-08-12T07:36:00.838Z,1019.16
2022-08-12T07:37:00.825Z,1019.18
2022-08-12T07:38:00.846Z,1019.17
2022-08-12T07:39:00.815Z,1019.16
2022-08-12T07:40:01.440Z,1019.22
2022-08-12T07:41:00.783Z,1019.20
2022-08-12T07:42:00.764Z,1019.17
2022-08-12T07:43:00.780Z,1019.22
2022-08-12T07:44:04.495Z,1019.19
2022-08-12T07:45:00.733Z,1019.16
2022-08-12T07:46:00.724Z,1019.21
2022-08-12T07:47:00.716Z,1019.15
2022-08-12T07:48:00.736Z,1019.21
2022-08-12T07:49:00.687Z,1019.17
2022-08-12T07:50:03.484Z,1019.13
2022-08-12T07:51:01.661Z,1019.13
2022-08-12T07:52:00.655Z,1019.14
2022-08-12T07:53:00.678Z,1019.16
2022-08-12T07:54:02.969Z,1019.13
2022-08-12T07:55:00.636Z,1019.14
2022-08-12T07:56:00.611Z,1019.15
2022-08-12T07:57:00.606Z,1019.19
2022-08-12T07:58:00.637Z,1019.16
2022-08-12T07:59:00.580Z,1019.22
2022-08-12T08:00:00.575Z,1019.13
2022-08-12T08:01:00.564Z,1019.15
2022-08-12T08:02:00.610Z,1019.13
2022-08-12T08:03:00.566Z,1019.15
2022-08-12T08:04:00.530Z,1019.17
2022-08-12T08:05:00.555Z,1019.15
2022-08-12T08:06:03.185Z,1019.11
2022-08-12T08:07:00.496Z,1019.14
2022-08-12T08:08:00.495Z,1019.11
2022-08-12T08:09:00.477Z,1019.14
2022-08-12T08:10:00.729Z,1019.16
2022-08-12T08:11:04.147Z,1019.14
2022-08-12T08:12:00.455Z,1019.18
2022-08-12T08:13:00.435Z,1019.17
2022-08-12T08:14:00.428Z,1019.11
2022-08-12T08:15:00.442Z,1019.08
2022-08-12T08:16:03.472Z,1019.13
2022-08-12T08:17:00.388Z,1019.10
2022-08-12T08:18:00.379Z,1019.10
2022-08-12T08:19:00.370Z,1019.01
2022-08-12T08:20:03.486Z,1019.12
2022-08-12T08:21:00.345Z,1019.09
2022-08-12T08:22:00.336Z,1019.04
2022-08-12T08:23:00.321Z,1019.08
2022-08-12T08:24:05.103Z,1019.07
2022-08-12T08:25:04.496Z,1019.06
2022-08-12T08:26:01.295Z,1018.98
2022-08-12T08:27:00.282Z,1019.01
2022-08-12T08:28:00.270Z,1019.02
2022-08-12T08:29:00.268Z,1018.94
2022-08-12T08:30:00.255Z,1019.02
2022-08-12T08:31:00.263Z,1019.03
2022-08-12T08:32:00.228Z,1019.03
2022-08-12T08:33:00.220Z,1018.98
2022-08-12T08:34:27.573Z,1018.98
2022-08-12T08:35:01.230Z,1018.97
2022-08-12T08:36:00.183Z,1018.94
2022-08-12T08:37:00.175Z,1018.95
2022-08-12T08:38:00.175Z,1019.00
2022-08-12T08:39:00.161Z,1019.04
2022-08-12T08:40:00.299Z,1019.04
2022-08-12T08:41:00.255Z,1019.03
2022-08-12T08:42:16.364Z,1018.99
2022-08-12T08:43:01.111Z,1019.01
2022-08-12T08:44:00.098Z,1019.07
2022-08-12T08:45:00.103Z,1019.04
2022-08-12T08:46:00.157Z,1019.02
2022-08-12T08:47:00.073Z,1019.08
2022-08-12T08:48:00.498Z,1019.08
2022-08-12T08:49:00.051Z,1019.10
2022-08-12T08:50:00.036Z,1019.06
2022-08-12T08:51:04.797Z,1019.00
2022-08-12T08:52:01.021Z,1019.00
2022-08-12T08:53:00.000Z,1019.05
2022-08-12T08:53:59.998Z,1019.04
2022-08-12T08:54:59.983Z,1019.09
2022-08-12T08:56:05.847Z,1018.98
2022-08-12T08:57:01.005Z,1019.06
2022-08-12T08:57:59.970Z,1019.06
2022-08-12T08:58:59.945Z,1019.13
2022-08-12T08:59:59.932Z,1019.07
2022-08-12T09:00:59.948Z,1019.08
2022-08-12T09:02:00.079Z,1019.00
2022-08-12T09:03:00.284Z,1019.06
2022-08-12T09:05:11.116Z,1019.07
2022-08-12T09:05:12.893Z,1019.15
2022-08-12T09:06:02.054Z,1019.11
2022-08-12T09:06:59.884Z,1019.05
2022-08-12T09:08:14.007Z,1019.01
2022-08-12T09:09:00.890Z,1019.02
2022-08-12T09:11:00.906Z,1019.03
2022-08-12T09:12:10.683Z,1018.98
2022-08-12T09:13:00.923Z,1018.95
2022-08-12T09:15:00.805Z,1018.95
2022-08-12T09:16:00.773Z,1018.99
2022-08-12T09:16:59.756Z,1019.01
2022-08-12T09:17:59.738Z,1018.98
2022-08-12T09:18:59.735Z,1019.02
2022-08-12T09:19:59.748Z,1019.08
2022-08-12T09:20:59.722Z,1019.13
2022-08-12T09:22:00.290Z,1019.09
2022-08-12T09:22:59.687Z,1019.03
2022-08-12T09:24:07.576Z,1019.01
2022-08-12T09:25:01.222Z,1019.02
2022-08-12T09:26:03.834Z,1019.02
2022-08-12T09:26:59.645Z,1019.02
2022-08-12T09:28:04.971Z,1018.96
2022-08-12T09:29:00.979Z,1018.90
2022-08-12T09:30:11.841Z,1018.95
2022-08-12T09:31:00.659Z,1018.99
2022-08-12T09:32:07.021Z,1018.97
2022-08-12T09:33:05.609Z,1018.99
2022-08-12T09:34:29.363Z,1018.97
2022-08-12T09:35:00.560Z,1018.95
2022-08-12T09:36:03.247Z,1018.92
2022-08-12T09:37:02.546Z,1018.93
2022-08-12T09:38:00.977Z,1018.98
2022-08-12T09:39:01.115Z,1018.98
2022-08-12T09:40:06.242Z,1018.92
2022-08-12T09:42:08.370Z,1018.91
2022-08-12T09:42:08.765Z,1019.04
2022-08-12T09:43:17.965Z,1018.91
2022-08-12T09:44:00.967Z,1018.88
2022-08-12T09:45:03.494Z,1018.91
2022-08-12T09:46:06.823Z,1018.83
2022-08-12T09:47:03.270Z,1018.87
2022-08-12T09:48:00.467Z,1018.83
2022-08-12T09:48:59.419Z,1018.82
2022-08-12T09:49:59.407Z,1018.82
2022-08-12T09:51:01.576Z,1018.79
2022-08-12T09:51:59.382Z,1018.74
2022-08-12T09:53:03.840Z,1018.67
2022-08-12T09:54:06.822Z,1018.61
2022-08-12T09:55:02.607Z,1018.62
2022-08-12T09:56:41.115Z,1018.69
2022-08-12T09:58:07.297Z,1018.67
2022-08-12T09:58:46.968Z,1018.65
2022-08-12T09:59:01.649Z,1018.59
2022-08-12T10:00:16.791Z,1018.57
2022-08-12T10:01:00.439Z,1018.57
2022-08-12T10:02:52.743Z,1018.61
2022-08-12T10:03:01.081Z,1018.53
2022-08-12T10:04:04.432Z,1018.55
2022-08-12T10:05:00.245Z,1018.65
2022-08-12T10:06:27.924Z,1018.61
2022-08-12T10:07:00.758Z,1018.57
2022-08-12T10:07:59.250Z,1018.58
2022-08-12T10:08:59.207Z,1018.60
2022-08-12T10:09:59.338Z,1018.61
2022-08-12T10:10:59.184Z,1018.72
2022-08-12T10:12:11.394Z,1018.60
2022-08-12T10:13:07.134Z,1018.63
2022-08-12T10:14:00.162Z,1018.69
2022-08-12T10:14:59.144Z,1018.68
2022-08-12T10:16:02.225Z,1018.74
2022-08-12T10:17:00.225Z,1018.60
2022-08-12T10:18:06.924Z,1018.66
2022-08-12T10:19:00.100Z,1018.51
2022-08-12T10:19:59.426Z,1018.57
2022-08-12T10:20:59.086Z,1018.48
2022-08-12T10:21:59.065Z,1018.45
2022-08-12T10:22:59.109Z,1018.48
2022-08-12T10:23:59.049Z,1018.50
2022-08-12T10:24:59.038Z,1018.45
2022-08-12T10:26:35.442Z,1018.41
2022-08-12T10:27:00.015Z,1018.53
2022-08-12T10:28:05.107Z,1018.40
2022-08-12T10:29:02.606Z,1018.40
2022-08-12T10:30:38.908Z,1018.36
2022-08-12T10:31:01.427Z,1018.42
2022-08-12T10:32:21.649Z,1018.42
2022-08-12T10:33:00.224Z,1018.47
2022-08-12T10:34:06.129Z,1018.46
2022-08-12T10:34:59.944Z,1018.43
2022-08-12T10:35:58.925Z,1018.47
2022-08-12T10:37:10.507Z,1018.36
2022-08-12T10:38:37.171Z,1018.42
2022-08-12T10:38:59.898Z,1018.37
2022-08-12T10:40:07.138Z,1018.36
2022-08-12T10:40:59.933Z,1018.37
2022-08-12T10:42:00.202Z,1018.35
2022-08-12T10:43:00.674Z,1018.36
2022-08-12T10:43:58.856Z,1018.35
2022-08-12T10:44:58.850Z,1018.30
2022-08-12T10:45:58.828Z,1018.27
2022-08-12T10:46:58.817Z,1018.24
2022-08-12T10:48:07.774Z,1018.18
2022-08-12T10:49:06.642Z,1018.21
2022-08-12T10:50:03.457Z,1018.21
2022-08-12T10:51:03.503Z,1018.17
2022-08-12T10:52:32.496Z,1018.22
2022-08-12T10:52:59.795Z,1018.22
2022-08-12T10:54:00.464Z,1018.22
2022-08-12T10:54:58.739Z,1018.21
2022-08-12T10:55:58.728Z,1018.14
2022-08-12T10:56:58.715Z,1018.17
2022-08-12T10:58:28.373Z,1018.12
2022-08-12T10:58:59.727Z,1018.13
2022-08-12T11:00:30.399Z,1018.04
2022-08-12T11:01:26.128Z,1018.09
2022-08-12T11:04:18.439Z,1018.09
2022-08-12T11:04:24.244Z,1018.07
2022-08-12T11:04:26.563Z,1018.17
2022-08-12T11:05:00.012Z,1018.23
2022-08-12T11:07:03.292Z,1018.13
2022-08-12T11:07:09.189Z,1018.14
2022-08-12T11:08:38.875Z,1018.12
2022-08-12T11:08:59.638Z,1018.17
2022-08-12T11:10:01.496Z,1018.13
2022-08-12T11:10:58.578Z,1018.11
2022-08-12T11:12:37.054Z,1018.09
2022-08-12T11:13:00.682Z,1018.09
2022-08-12T11:13:59.854Z,1018.10
2022-08-12T11:14:58.723Z,1018.06
2022-08-12T11:16:03.823Z,1018.14
2022-08-12T11:17:34.949Z,1018.08
2022-08-12T11:18:03.041Z,1017.98
2022-08-12T11:18:58.554Z,1017.99
2022-08-12T11:19:58.519Z,1018.03
2022-08-12T11:20:58.479Z,1017.97
2022-08-12T11:22:01.082Z,1017.97
2022-08-12T11:22:59.370Z,1017.99
2022-08-12T11:23:58.454Z,1017.94
2022-08-12T11:24:58.463Z,1018.00
2022-08-12T11:26:01.424Z,1018.04
2022-08-12T11:26:59.556Z,1018.09
2022-08-12T11:27:58.418Z,1018.04
2022-08-12T11:29:05.384Z,1018.01
2022-08-12T11:30:02.529Z,1018.04
2022-08-12T11:30:59.401Z,1018.04
2022-08-12T11:32:02.425Z,1018.05
2022-08-12T11:32:58.359Z,1018.04
2022-08-12T11:34:06.098Z,1017.98
2022-08-12T11:34:59.621Z,1017.97
2022-08-12T11:35:59.800Z,1017.93
2022-08-12T11:36:58.561Z,1017.95
2022-08-12T11:37:59.403Z,1017.94
2022-08-12T11:38:58.298Z,1017.97
2022-08-12T11:40:59.274Z,1017.91
2022-08-12T11:41:58.229Z,1017.84
2022-08-12T11:43:00.832Z,1017.85
2022-08-12T11:43:59.361Z,1017.79
2022-08-12T11:44:58.201Z,1017.78
2022-08-12T11:45:58.232Z,1017.88
2022-08-12T11:46:58.186Z,1017.89
2022-08-12T11:47:58.169Z,1017.88
2022-08-12T11:48:58.160Z,1017.91
2022-08-12T11:49:58.154Z,1017.83
2022-08-12T11:50:58.154Z,1017.86
2022-08-12T11:51:58.233Z,1017.93
2022-08-12T11:52:58.271Z,1017.91
2022-08-12T11:54:01.176Z,1017.86
2022-08-12T11:54:58.113Z,1017.86
2022-08-12T11:55:58.096Z,1017.74
2022-08-12T11:56:59.125Z,1017.78
2022-08-12T11:58:40.497Z,1017.79
2022-08-12T12:02:05.115Z,1017.79
2022-08-12T12:02:59.077Z,1017.78
2022-08-12T12:03:58.038Z,1017.74
2022-08-12T12:04:58.011Z,1017.70
2022-08-12T12:06:00.435Z,1017.69
2022-08-12T12:07:06.806Z,1017.65
2022-08-12T12:08:37.639Z,1017.71
2022-08-12T12:09:00.633Z,1017.68
2022-08-12T12:09:57.963Z,1017.71
2022-08-12T12:10:57.979Z,1017.73